WEATHER DATA

YESTERDAY
Time Temp. Dewp. Hum. Wind dir Wind speed Wind gust Bar.
00:02 5.9 2.2 77 270 0.3 0.8 1022.1
00:23 5.8 2.3 78 270 0.3 0.8 1021.8
00:32 5.8 2.3 78 0 0 1021.8
00:44 5.8 2.3 78 270 0.3 0.8 1021.8
00:54 6 2.6 79 0.3 0.8 1021.7
01:05 6.1 2.7 79 0 0.3 1.4 1021.6
01:14 6.3 2.9 79 45 0.3 1.1 1021.6
01:24 6.4 3 79 50 0.3 1.4 1021.6
01:35 6.5 3.1 79 11 0.3 0.8 1021.5
01:45 6.7 3.3 79 45 0.3 1.1 1021.5
01:55 7.1 3.7 79 321 0.3 2.5 1021.5
02:05 7.7 4.3 79 318 0.8 2.2 1021.4
02:15 8.5 5.1 79 298 0.8 2.2 1021.3
02:25 8.9 5.1 77 334 0.8 1.7 1021.2
02:35 9.2 5.2 76 315 0.3 1.4 1021.2
02:45 9.2 5 75 321 0.3 2.2 1021.1
02:55 9.2 5 75 26 0.3 1.1 1021.1
03:05 9 4.6 74 310 0.3 2.5 1021
03:15 8.9 4.5 74 270 0.3 2.2 1020.9
03:26 9 4.6 74 333 0.3 1.1 1021
03:36 8.9 4.5 74 45 0.3 0.8 1020.9
03:45 8.8 4.4 74 11 0.3 1.1 1020.9
03:56 8.9 4.5 74 11 0.3 2.5 1020.9
04:06 8.9 4.5 74 345 0.3 1.7 1020.8
04:16 8.9 4.5 74 338 0.3 1.4 1020.8
04:26 8.9 4.5 74 341 0.3 1.1 1020.8
04:37 9.1 4.7 74 327 0.8 1.7 1020.9
04:47 9.5 5.1 74 326 0.8 2.2 1020.9
04:56 9.5 4.9 73 356 0.3 1.1 1021
05:06 9.5 4.9 73 270 0.3 1.4 1020.8
05:17 9.4 4.8 73 315 0.3 1.1 1020.9
05:27 9.3 4.7 73 270 0.3 1.7 1020.9
05:37 9.2 4.6 73 270 0.3 1.4 1020.9
05:47 9.2 4.6 73 270 0.3 1.1 1021
05:57 9.4 4.8 73 301 1.1 2.8 1021.1
06:07 9.5 4.9 73 299 1.1 2.2 1021.3
06:17 9.6 5 73 301 1.1 2.8 1021.3
06:28 9.6 4.8 72 317 1.1 2.2 1021.4
06:38 9.6 5 73 302 1.1 2.8 1021.4
06:48 9.6 5 73 315 0.8 1.7 1021.5
06:58 9.7 5.1 73 270 0.3 1.4 1021.5
07:08 10 5.4 73 315 0.3 1.4 1021.4
07:18 10.2 5.8 74 296 1.1 2.5 1021.5
07:28 10.6 6.2 74 260 1.4 2.8 1021.5
07:39 11.1 6.6 74 270 1.4 3.6 1021.5
07:48 11.4 6.7 73 279 1.4 2.8 1021.4
07:58 11.7 7 73 270 1.4 2.5 1021.5
08:08 12 7.3 73 284 1.4 2.8 1021.5
08:19 12.2 7.3 72 323 1.1 2.2 1021.6
08:29 12.5 7.6 72 315 1.1 2.2 1021.6
08:38 12.7 7.6 71 310 0.8 2.5 1021.5
08:49 12.9 7.8 71 320 0.8 2.2 1021.5
08:59 13.1 7.8 70 326 0.8 2.2 1021.4
09:08 13.4 8.3 71 309 0.8 2.8 1021.4
09:19 13.9 8.5 70 315 0.8 2.2 1021.3
09:29 14.1 8.5 69 23 0.3 1.4 1021.1
09:39 14.2 8.4 68 333 0.3 1.4 1021
09:48 14.4 8.6 68 6 0.3 1.1 1021
09:59 14.5 8.7 68 315 0.3 1.7 1021
10:09 14.6 8.8 68 348 0.3 1.4 1020.9
10:19 14.7 8.6 67 270 0.3 1.7 1020.8
10:30 14.8 8.7 67 315 0.3 2.2 1020.8
10:41 15.4 9.5 68 26 0.8 2.5 1020.5
10:51 15.8 9.7 67 45 0.3 2.5 1020.4
11:01 15.9 9.6 66 45 0.3 2.5 1020.2
11:17 16.3 9.7 65 45 0.3 2.5 1019.9
11:28 16.4 9.8 65 323 0.8 1.7 1019.8
11:37 16.6 10 65 288 0.8 2.2 1019.6
11:47 16.9 10.3 65 225 0.3 2.2 1019.4
11:57 17 10.1 64 225 0.3 2.2 1019.4
12:08 17.2 10.1 63 26 0.3 1.4 1019.2
12:17 17.4 10.3 63 90 0.3 1.7 1019
12:27 17.4 10.1 62 180 0.3 1.7 1018.8
12:38 17.6 10.5 63 315 0.8 2.8 1018.6
12:47 17.8 10.4 62 59 0.3 1.7 1018.5
12:57 17.9 10.5 62 90 0.8 2.2 1018.2
13:08 18 10.6 62 108 0.8 2.5 1018
13:18 18.1 10.5 61 90 0.8 2.5 1017.8
13:27 18.1 10.5 61 108 0.8 3.6 1017.6
13:37 18.2 10.6 61 48 0.8 1.7 1017.3
13:48 18.3 10.4 60 65 1.1 3.6 1017.1
13:58 18.4 10.5 60 90 0.8 2.5 1016.9
14:07 18.4 10.3 59 90 0.8 2.2 1016.9
14:18 18.5 10.3 59 90 0.8 1.4 1016.8
14:28 18.6 10.4 59 90 0.3 1.1 1016.7
14:37 18.6 10.4 59 90 0.3 2.2 1016.5
14:48 18.7 10.3 58 54 0.3 1.1 1016.3
14:58 18.8 10.4 58 0 0.3 1.4 1016.2
15:08 18.9 10.5 58 343 0.8 2.2 1016.1
15:17 18.9 10.2 57 45 0.3 1.4 1015.9
15:28 18.9 10.2 57 45 0.8 2.5 1015.7
15:38 18.9 9.9 56 15 0.8 1.7 1015.7
15:47 18.9 9.9 56 0 0.3 1.4 1015.5
15:58 18.9 9.9 56 32 0.3 1.4 1015.5
16:08 18.8 9.8 56 47 0.8 1.7 1015.4
16:18 18.6 9.7 56 53 0.8 1.4 1015.2
16:27 18.6 9.7 56 47 0.8 1.4 1015.2
16:38 18.5 9.6 56 23 0.8 1.7 1015.2
16:48 18.4 9.5 56 18 0.8 1.7 1015.3
16:58 18.2 9 55 300 0.8 2.8 1015.2
17:08 17.9 8.7 55 293 1.4 3.1 1015.1
17:18 17.6 8.5 55 319 1.4 2.2 1015.1
17:28 17.2 8.6 57 328 1.4 2.2 1015
17:38 16.8 8.2 57 287 0.8 2.2 1015
17:49 16.3 8 58 270 0.8 1.4 1014.9
17:58 15.8 7.8 59 284 0.8 1.4 1014.8
18:08 15.1 7.4 60 297 0.8 1.4 1014.9
18:19 14.5 7.1 61 270 0.8 1.7 1015
18:29 14.5 7.3 62 284 0.8 1.7 1015
18:39 14.3 6.9 61 270 0.3 1.4 1015.1
18:48 13.9 6.5 61 270 0.3 1.4 1015.2
18:59 13.6 6.5 62 283 0.8 1.4 1015.2
19:09 13.4 6.5 63 286 0.8 1.4 1015.3
19:19 13.1 6.2 63 287 0.8 1.4 1015.4
19:29 12.7 5.8 63 270 0.3 1.4 1015.5
19:39 12.4 5.8 64 297 0.8 1.4 1015.5
19:49 12.2 5.8 65 270 0.3 1.1 1015.5
19:59 12.2 6 66 270 0.3 1.1 1015.4
20:10 12.1 5.9 66 270 0.3 1.1 1015.5
20:20 12.1 6.2 67 282 0.8 3.6 1015.6
20:29 12.6 6.6 67 290 0.8 2.8 1015.8
20:40 12.7 6.5 66 295 0.8 2.8 1015.9
20:50 12.8 6.8 67 318 0.8 2.2 1015.8
21:05 12.8 7 68 300 0.8 2.2 1015.8
21:15 12.8 7 68 322 0.8 2.8 1015.9
21:26 12.8 7 68 315 0.8 2.2 1015.9
21:35 12.8 7 68 300 0.8 2.2 1015.9
21:45 12.8 7 68 310 0.8 2.5 1015.9
21:56 12.8 7.3 69 327 0.3 1.4 1015.8
22:06 12.7 7 68 315 0.8 2.5 1015.7
22:16 12.5 6.8 68 295 0.8 1.7 1015.5
22:26 12.3 6.8 69 284 0.8 2.8 1015.6
22:36 12.2 6.7 69 281 0.8 2.8 1015.5
22:46 12.1 6.8 70 294 0.8 1.4 1015.3
22:56 12 6.7 70 270 0.8 1.7 1015.4
23:06 12 6.7 70 294 0.8 1.7 1015.3
23:17 11.9 6.6 70 308 0.8 1.4 1015.3
23:27 11.8 6.5 70 294 0.8 1.7 1015.4
23:36 11.6 6.3 70 304 1.1 1.7 1015.1
23:47 11.3 6 70 291 0.8 2.5 1014.9

DAY STATISTIC

2019-03-24
TEMPERATURE
AVERAGE
13.1
HIGH
18.9
15:08
LOW
5.8
00:23
PRESSURE
AVERAGE
1018.5
HIGH
1022.1
00:02
LOW
1014.8
17:58
DEWPOINT
AVERAGE
7.1
HIGH
10.6
13:08
LOW
2.2
00:02
HUMIDITY
AVERAGE
68
HIGH
79
00:54
LOW
55
16:58
WIND SPEED
AVERAGE
0.6
HIGH
1.4
07:28
WIND GUST
AVERAGE
1.9
HIGH
3.6
07:39
WIND DIRECTION
PREVAILING
NW
37.4%
N
10.8
NE
15.8
E
7.2
SE
0.0
S
0.7
SW
1.4
W
25.9
NW
37.4
TEMPERATURE (°C)
LOW
5.8
HIGH
18.9
AVERAGE
13.1
PRESSURE (hpa)
LOW
1014.8
HIGH
1022.1
AVERAGE
1018.5
DEVICE